createdAt,value
2019-03-10T00:01:35.930Z,98579.53
2019-03-10T00:06:57.340Z,98572.37
2019-03-10T00:12:18.839Z,98562.72
2019-03-10T00:17:39.776Z,98565.04
2019-03-10T00:23:01.354Z,98579.15
2019-03-10T00:28:22.469Z,98581.11
2019-03-10T00:33:43.610Z,98598.34
2019-03-10T00:39:31.337Z,98580.07
2019-03-10T00:45:43.469Z,98574.09
2019-03-10T00:51:37.922Z,98573.09
2019-03-10T00:56:59.085Z,98580.60
2019-03-10T01:02:20.225Z,98577.16
2019-03-10T01:07:41.681Z,98577.43
2019-03-10T01:13:03.627Z,98587.44
2019-03-10T01:18:26.113Z,98577.47
2019-03-10T01:23:47.057Z,98570.03
2019-03-10T01:29:08.154Z,98568.59
2019-03-10T01:35:01.916Z,98579.38
2019-03-10T01:40:23.055Z,98583.47
2019-03-10T01:45:44.355Z,98574.70
2019-03-10T01:51:05.597Z,98575.03
2019-03-10T01:56:27.052Z,98559.79
2019-03-10T02:01:48.015Z,98563.28
2019-03-10T02:07:09.117Z,98564.24
2019-03-10T02:12:30.294Z,98563.51
2019-03-10T02:17:51.446Z,98562.77
2019-03-10T02:23:12.540Z,98570.80
2019-03-10T02:28:33.643Z,98560.25
2019-03-10T02:33:54.660Z,98552.81
2019-03-10T02:39:15.762Z,98552.20
2019-03-10T02:44:37.050Z,98562.22
2019-03-10T02:49:58.266Z,98546.41
2019-03-10T02:55:19.409Z,98548.23
2019-03-10T03:00:40.605Z,98540.31
2019-03-10T03:06:01.838Z,98544.25
2019-03-10T03:11:22.865Z,98544.47
2019-03-10T03:16:44.338Z,98542.81
2019-03-10T03:22:06.677Z,98556.67
2019-03-10T03:27:27.902Z,98558.77
2019-03-10T03:32:48.892Z,98554.86
2019-03-10T03:38:10.342Z,98547.63
2019-03-10T03:43:31.864Z,98534.57
2019-03-10T03:48:52.909Z,98546.36
2019-03-10T03:54:14.259Z,98545.39
2019-03-10T03:59:35.270Z,98549.11
2019-03-10T04:04:56.644Z,98530.28
2019-03-10T04:10:17.835Z,98549.91
2019-03-10T04:15:38.874Z,98553.83
2019-03-10T04:20:59.960Z,98546.59
2019-03-10T04:26:21.141Z,98551.05
2019-03-10T04:31:42.696Z,98548.52
2019-03-10T04:37:03.806Z,98543.02
2019-03-10T04:42:25.393Z,98560.81
2019-03-10T04:47:46.828Z,98564.81
2019-03-10T04:53:07.837Z,98575.61
2019-03-10T04:58:29.324Z,98557.64
2019-03-10T05:03:50.471Z,98556.28
2019-03-10T05:09:11.656Z,98561.41
2019-03-10T05:14:32.834Z,98552.47
2019-03-10T05:19:54.255Z,98568.48
2019-03-10T05:25:15.734Z,98581.25
2019-03-10T05:30:37.369Z,98575.01
2019-03-10T05:35:58.272Z,98567.13
2019-03-10T05:41:19.455Z,98578.45
2019-03-10T05:46:40.635Z,98596.72
2019-03-10T05:52:01.720Z,98589.63
2019-03-10T05:57:22.553Z,98601.34
2019-03-10T06:02:43.978Z,98599.59
2019-03-10T06:08:05.440Z,98626.12
2019-03-10T06:13:28.419Z,98617.62
2019-03-10T06:18:49.742Z,98618.14
2019-03-10T06:24:11.287Z,98634.11
2019-03-10T06:29:32.585Z,98643.64
2019-03-10T06:34:54.193Z,98658.19
2019-03-10T06:40:16.563Z,98638.89
2019-03-10T06:45:37.708Z,98656.67
2019-03-10T06:50:58.680Z,98678.67
2019-03-10T06:56:19.890Z,98673.38
2019-03-10T07:01:41.354Z,98668.06
2019-03-10T07:07:02.341Z,98652.42
2019-03-10T07:12:23.815Z,98645.77
2019-03-10T07:17:45.062Z,98642.48
2019-03-10T07:23:09.590Z,98670.91
2019-03-10T07:28:33.439Z,98652.17
2019-03-10T07:34:19.883Z,98659.48
2019-03-10T07:39:58.952Z,98652.95
2019-03-10T07:45:41.027Z,98653.15
2019-03-10T07:51:07.717Z,98658.73
2019-03-10T07:56:46.921Z,98637.91
2019-03-10T08:02:36.528Z,98656.54
2019-03-10T08:08:04.312Z,98631.27
2019-03-10T08:13:41.884Z,98612.09
2019-03-10T08:19:34.601Z,98613.67
2019-03-10T08:25:13.815Z,98611.80
2019-03-10T08:30:52.816Z,98619.18
2019-03-10T08:36:33.425Z,98604.05
2019-03-10T08:42:20.600Z,98606.69
2019-03-10T08:47:59.757Z,98613.11
2019-03-10T08:53:31.244Z,98618.93
2019-03-10T08:59:10.824Z,98606.24
2019-03-10T09:04:44.004Z,98586.30
2019-03-10T09:10:25.971Z,98585.61
2019-03-10T09:16:07.186Z,98584.78
2019-03-10T09:21:51.749Z,98605.34
2019-03-10T09:27:37.841Z,98616.02
2019-03-10T09:33:26.199Z,98616.27
2019-03-10T09:39:18.353Z,98609.71
2019-03-10T09:44:46.598Z,98608.84
2019-03-10T09:50:32.501Z,98616.05
2019-03-10T09:56:13.439Z,98616.13
2019-03-10T10:01:44.444Z,98640.41
2019-03-10T10:07:33.008Z,98626.12
2019-03-10T10:13:12.399Z,98631.88
2019-03-10T10:18:51.391Z,98629.34
2019-03-10T10:24:38.353Z,98630.19
2019-03-10T10:30:17.787Z,98630.84
2019-03-10T10:35:59.660Z,98622.66
2019-03-10T10:41:39.498Z,98616.27
2019-03-10T10:47:20.546Z,98605.72
2019-03-10T10:53:00.362Z,98606.73
2019-03-10T10:58:43.368Z,98598.00
2019-03-10T11:04:27.096Z,98578.89
2019-03-10T11:10:16.697Z,98554.63
2019-03-10T11:16:04.927Z,98542.36
2019-03-10T11:21:46.414Z,98527.91
2019-03-10T11:27:33.464Z,98534.20
2019-03-10T11:33:04.594Z,98522.75
2019-03-10T11:38:47.909Z,98522.75
2019-03-10T11:44:31.224Z,98528.81
2019-03-10T11:50:11.675Z,98492.62
2019-03-10T11:55:40.713Z,98481.69
2019-03-10T12:01:20.059Z,98491.06
2019-03-10T12:06:47.942Z,98491.06
2019-03-10T12:12:09.941Z,98474.88
2019-03-10T12:17:31.533Z,98467.16
2019-03-10T12:22:53.284Z,98470.27
2019-03-10T12:28:14.622Z,98467.83
2019-03-10T12:33:36.389Z,98453.73
2019-03-10T12:38:59.253Z,98467.69
2019-03-10T12:44:20.459Z,98462.28
2019-03-10T12:49:43.373Z,98444.58
2019-03-10T12:55:04.579Z,98430.28
2019-03-10T13:00:25.894Z,98430.28
2019-03-10T13:05:47.114Z,98428.06
2019-03-10T13:11:09.001Z,98430.98
2019-03-10T13:16:30.294Z,98432.47
2019-03-10T13:21:55.071Z,98401.66
2019-03-10T13:27:16.292Z,98400.27
2019-03-10T13:32:37.629Z,98387.11
2019-03-10T13:37:58.823Z,98375.02
2019-03-10T13:43:19.957Z,98375.67
2019-03-10T13:48:40.996Z,98362.14
2019-03-10T13:54:05.278Z,98350.23
2019-03-10T13:59:26.390Z,98346.52
2019-03-10T14:04:47.596Z,98335.77
2019-03-10T14:10:10.624Z,98335.77
2019-03-10T14:15:32.471Z,98337.55
2019-03-10T14:20:53.750Z,98323.38
2019-03-10T14:26:14.859Z,98330.49
2019-03-10T14:31:36.837Z,98325.40
2019-03-10T14:36:58.212Z,98332.92
2019-03-10T14:42:19.644Z,98332.92
2019-03-10T14:47:40.823Z,98328.36
2019-03-10T14:53:04.607Z,98313.99
2019-03-10T14:58:27.408Z,98317.71
2019-03-10T15:03:48.780Z,98300.13
2019-03-10T15:09:09.816Z,98295.23
2019-03-10T15:14:30.829Z,98288.41
2019-03-10T15:19:52.645Z,98284.78
2019-03-10T15:25:14.207Z,98276.31
2019-03-10T15:30:35.470Z,98272.39
2019-03-10T15:35:56.661Z,98273.63
2019-03-10T15:41:18.347Z,98268.22
2019-03-10T15:46:40.171Z,98269.73
2019-03-10T15:52:04.087Z,98282.94
2019-03-10T15:57:25.862Z,98279.06
2019-03-10T16:02:47.544Z,98273.64
2019-03-10T16:08:08.876Z,98286.60
2019-03-10T16:13:30.670Z,98278.32
2019-03-10T16:18:51.756Z,98282.39
2019-03-10T16:24:12.903Z,98292.22
2019-03-10T16:29:33.951Z,98300.38
2019-03-10T16:34:58.397Z,98304.38
2019-03-10T16:40:20.277Z,98311.36
2019-03-10T16:45:44.207Z,98316.67
2019-03-10T16:51:05.315Z,98300.30
2019-03-10T16:56:32.563Z,98303.91
2019-03-10T17:01:53.460Z,98303.42
2019-03-10T17:07:14.767Z,98299.02
2019-03-10T17:12:36.288Z,98297.50
2019-03-10T17:17:57.388Z,98299.30
2019-03-10T17:23:18.690Z,98291.27
2019-03-10T17:28:39.842Z,98279.97
2019-03-10T17:34:01.034Z,98262.56
2019-03-10T17:39:25.756Z,98262.53
2019-03-10T17:44:47.057Z,98258.03
2019-03-10T17:50:08.825Z,98248.52
2019-03-10T17:55:30.074Z,98230.66
2019-03-10T18:00:51.411Z,98231.97
2019-03-10T18:06:13.438Z,98246.84
2019-03-10T18:11:35.768Z,98241.38
2019-03-10T18:16:57.063Z,98229.03
2019-03-10T18:22:17.955Z,98233.24
2019-03-10T18:27:39.570Z,98230.54
2019-03-10T18:33:00.769Z,98211.73
2019-03-10T18:38:22.288Z,98209.90
2019-03-10T18:43:43.548Z,98227.17
2019-03-10T18:49:04.936Z,98219.03
2019-03-10T18:54:26.210Z,98194.33
2019-03-10T18:59:47.113Z,98178.66
2019-03-10T19:05:08.929Z,98196.20
2019-03-10T19:10:29.840Z,98184.00
2019-03-10T19:15:51.100Z,98181.08
2019-03-10T19:21:12.168Z,98177.08
2019-03-10T19:26:34.082Z,98158.72
2019-03-10T19:31:55.588Z,98146.66
2019-03-10T19:37:16.983Z,98146.93
2019-03-10T19:42:38.213Z,98150.95
2019-03-10T19:47:59.340Z,98140.67
2019-03-10T19:53:20.678Z,98134.06
2019-03-10T19:58:42.139Z,98136.98
2019-03-10T20:04:03.441Z,98136.14
2019-03-10T20:09:24.605Z,98128.46
2019-03-10T20:14:45.587Z,98131.05
2019-03-10T20:20:09.383Z,98125.25
2019-03-10T20:25:30.530Z,98134.43
2019-03-10T20:30:54.797Z,98133.19
2019-03-10T20:36:16.104Z,98116.39
2019-03-10T20:41:37.454Z,98110.28
2019-03-10T20:47:01.622Z,98105.17
2019-03-10T20:52:22.729Z,98110.34
2019-03-10T20:57:44.566Z,98096.30
2019-03-10T21:03:06.001Z,98090.88
2019-03-10T21:08:27.005Z,98090.41
2019-03-10T21:13:48.143Z,98084.78
2019-03-10T21:19:09.200Z,98070.14
2019-03-10T21:24:32.811Z,98074.91
2019-03-10T21:29:54.978Z,98077.56
2019-03-10T21:35:17.859Z,98072.19
2019-03-10T21:40:39.453Z,98053.37
2019-03-10T21:46:00.519Z,98053.33
2019-03-10T21:51:21.860Z,98064.17
2019-03-10T21:56:42.824Z,98063.06
2019-03-10T22:02:05.070Z,98048.63
2019-03-10T22:07:26.758Z,98044.72
2019-03-10T22:12:48.017Z,98043.51
2019-03-10T22:18:09.019Z,98039.84
2019-03-10T22:23:29.824Z,98032.32
2019-03-10T22:28:51.381Z,98026.16
2019-03-10T22:34:13.225Z,98011.87
2019-03-10T22:39:34.214Z,98012.05
2019-03-10T22:44:55.532Z,97997.52
2019-03-10T22:50:17.146Z,98000.28
2019-03-10T22:55:38.237Z,97994.20
2019-03-10T23:00:59.688Z,97989.77
2019-03-10T23:06:21.252Z,97995.36
2019-03-10T23:11:42.641Z,97996.77
2019-03-10T23:17:03.836Z,97990.50
2019-03-10T23:22:25.155Z,98006.19
2019-03-10T23:27:47.332Z,97993.49
2019-03-10T23:33:08.559Z,97983.27
2019-03-10T23:38:29.687Z,97984.12
2019-03-10T23:43:50.968Z,97985.20
2019-03-10T23:49:12.245Z,97984.39
2019-03-10T23:54:33.472Z,97984.88
2019-03-10T23:59:54.865Z,97974.44
